KCYS/CYS METAR and TAF weather

Enter ICAO airport designator
Station Type Date Time Source
KCYS METAR 2019/02/23 22:53 UTC NOAA

KCYS 232253Z 32022G32KT 10SM SCT100 M02/M14 A2988 RMK AO2 PK WND 33036/2229 SLP164 T10221139


Station Type Date Time Source
KCYS Decoded METAR 2019/02/23 22:53 UTC NOAA

CHEYENNE AIRPORT, WY, United States (KCYS) 41-09N 104-48W 1865M
Feb 23, 2019 - 05:53 PM EST / 2019.02.23 2253 UTC
Wind: from the NW (320 degrees) at 25 MPH (22 KT) gusting to 37 MPH (32 KT):0
Visibility: 10 mile(s):0
Sky conditions: partly cloudy
Temperature: 28.0 F (-2.2 C)
Windchill: 14 F (-10 C):1
Dew Point: 7.0 F (-13.9 C)
Relative Humidity: 40%
Pressure (altimeter): 29.88 in. Hg (1011 hPa)
ob: KCYS 232253Z 32022G32KT 10SM SCT100 M02/M14 A2988 RMK AO2 PK WND 33036/2229 SLP164 T10221139
cycle: 23

Station Type Date Time Source
KCYS TAF 2019/02/23 18:34 UTC NOAA

TAF KCYS 231732Z 2318/2418 30021G31KT P6SM SKC
FM240300 29025G35KT P6SM SCT150
FM241600 27013G25KT P6SM FEW240


Example: see airport list